sensor_id;sensor_type;location;lat;lon;timestamp;P1;durP1;ratioP1;P2;durP2;ratioP2
43086;SDS011;28708;52.224;6.924;2023-01-26T00:01:18;269.27;;;69.03;;
43086;SDS011;28708;52.224;6.924;2023-01-26T00:03:45;251.93;;;67.70;;
43086;SDS011;28708;52.224;6.924;2023-01-26T00:06:12;279.07;;;70.37;;
43086;SDS011;28708;52.224;6.924;2023-01-26T00:08:40;272.60;;;66.27;;
43086;SDS011;28708;52.224;6.924;2023-01-26T00:11:08;257.77;;;67.03;;
43086;SDS011;28708;52.224;6.924;2023-01-26T00:13:36;244.13;;;64.80;;
43086;SDS011;28708;52.224;6.924;2023-01-26T00:16:02;245.80;;;64.17;;
43086;SDS011;28708;52.224;6.924;2023-01-26T00:18:29;266.17;;;67.60;;
43086;SDS011;28708;52.224;6.924;2023-01-26T00:20:55;253.27;;;67.77;;
43086;SDS011;28708;52.224;6.924;2023-01-26T00:23:22;239.63;;;66.43;;
43086;SDS011;28708;52.224;6.924;2023-01-26T00:25:48;221.97;;;63.93;;
43086;SDS011;28708;52.224;6.924;2023-01-26T00:28:14;250.53;;;66.50;;
43086;SDS011;28708;52.224;6.924;2023-01-26T00:30:39;223.13;;;61.80;;
43086;SDS011;28708;52.224;6.924;2023-01-26T00:33:05;260.87;;;65.77;;
43086;SDS011;28708;52.224;6.924;2023-01-26T00:35:31;264.73;;;65.23;;
43086;SDS011;28708;52.224;6.924;2023-01-26T00:37:56;249.90;;;62.10;;
43086;SDS011;28708;52.224;6.924;2023-01-26T00:40:22;253.27;;;63.07;;
43086;SDS011;28708;52.224;6.924;2023-01-26T00:42:48;229.07;;;63.87;;
43086;SDS011;28708;52.224;6.924;2023-01-26T00:45:13;222.87;;;60.73;;
43086;SDS011;28708;52.224;6.924;2023-01-26T00:47:39;235.90;;;64.23;;
43086;SDS011;28708;52.224;6.924;2023-01-26T00:50:05;202.03;;;59.70;;
43086;SDS011;28708;52.224;6.924;2023-01-26T00:52:31;217.50;;;61.17;;
43086;SDS011;28708;52.224;6.924;2023-01-26T00:54:56;217.73;;;61.93;;
43086;SDS011;28708;52.224;6.924;2023-01-26T00:57:23;240.57;;;63.17;;
43086;SDS011;28708;52.224;6.924;2023-01-26T00:59:48;204.27;;;58.40;;
43086;SDS011;28708;52.224;6.924;2023-01-26T01:02:15;192.33;;;59.37;;
43086;SDS011;28708;52.224;6.924;2023-01-26T01:04:40;209.47;;;59.73;;
43086;SDS011;28708;52.224;6.924;2023-01-26T01:07:06;219.90;;;62.07;;
43086;SDS011;28708;52.224;6.924;2023-01-26T01:09:32;193.73;;;58.27;;
43086;SDS011;28708;52.224;6.924;2023-01-26T01:11:57;196.87;;;58.40;;
43086;SDS011;28708;52.224;6.924;2023-01-26T01:14:23;195.63;;;59.90;;
43086;SDS011;28708;52.224;6.924;2023-01-26T01:16:49;204.10;;;59.67;;
43086;SDS011;28708;52.224;6.924;2023-01-26T01:19:15;200.00;;;59.77;;
43086;SDS011;28708;52.224;6.924;2023-01-26T01:21:42;203.60;;;63.07;;
43086;SDS011;28708;52.224;6.924;2023-01-26T01:24:09;203.97;;;57.10;;
43086;SDS011;28708;52.224;6.924;2023-01-26T01:26:35;200.13;;;60.37;;
43086;SDS011;28708;52.224;6.924;2023-01-26T01:29:02;206.20;;;59.50;;
43086;SDS011;28708;52.224;6.924;2023-01-26T01:31:28;201.90;;;59.73;;
43086;SDS011;28708;52.224;6.924;2023-01-26T01:33:54;176.87;;;56.30;;
43086;SDS011;28708;52.224;6.924;2023-01-26T01:36:20;183.47;;;56.20;;
43086;SDS011;28708;52.224;6.924;2023-01-26T01:38:49;187.70;;;57.80;;
43086;SDS011;28708;52.224;6.924;2023-01-26T01:41:16;184.30;;;56.13;;
43086;SDS011;28708;52.224;6.924;2023-01-26T01:43:43;178.60;;;59.60;;
43086;SDS011;28708;52.224;6.924;2023-01-26T01:51:37;176.57;;;55.57;;
43086;SDS011;28708;52.224;6.924;2023-01-26T01:54:10;187.37;;;55.00;;
43086;SDS011;28708;52.224;6.924;2023-01-26T01:56:42;165.03;;;52.07;;
43086;SDS011;28708;52.224;6.924;2023-01-26T01:59:14;177.97;;;52.77;;
43086;SDS011;28708;52.224;6.924;2023-01-26T02:01:44;189.93;;;55.33;;
43086;SDS011;28708;52.224;6.924;2023-01-26T02:04:11;174.30;;;53.93;;
43086;SDS011;28708;52.224;6.924;2023-01-26T02:06:54;174.87;;;53.33;;
43086;SDS011;28708;52.224;6.924;2023-01-26T02:09:41;162.33;;;50.70;;
43086;SDS011;28708;52.224;6.924;2023-01-26T02:12:28;175.50;;;52.73;;
43086;SDS011;28708;52.224;6.924;2023-01-26T02:14:55;176.23;;;51.80;;
43086;SDS011;28708;52.224;6.924;2023-01-26T02:17:21;162.27;;;52.23;;
43086;SDS011;28708;52.224;6.924;2023-01-26T02:22:41;168.80;;;49.30;;
43086;SDS011;28708;52.224;6.924;2023-01-26T02:27:54;151.33;;;46.63;;
43086;SDS011;28708;52.224;6.924;2023-01-26T02:30:21;139.10;;;44.03;;
43086;SDS011;28708;52.224;6.924;2023-01-26T02:32:47;144.27;;;43.90;;
43086;SDS011;28708;52.224;6.924;2023-01-26T02:35:13;137.10;;;41.60;;
43086;SDS011;28708;52.224;6.924;2023-01-26T02:37:39;131.03;;;43.30;;
43086;SDS011;28708;52.224;6.924;2023-01-26T02:40:11;140.80;;;45.67;;
43086;SDS011;28708;52.224;6.924;2023-01-26T02:42:40;150.43;;;43.47;;
43086;SDS011;28708;52.224;6.924;2023-01-26T02:45:09;136.33;;;43.17;;
43086;SDS011;28708;52.224;6.924;2023-01-26T02:47:37;133.93;;;43.60;;
43086;SDS011;28708;52.224;6.924;2023-01-26T02:50:04;132.40;;;41.67;;
43086;SDS011;28708;52.224;6.924;2023-01-26T02:52:34;144.80;;;44.40;;
43086;SDS011;28708;52.224;6.924;2023-01-26T02:55:05;140.40;;;45.07;;
43086;SDS011;28708;52.224;6.924;2023-01-26T02:57:47;139.03;;;42.97;;
43086;SDS011;28708;52.224;6.924;2023-01-26T03:00:18;141.90;;;44.03;;
43086;SDS011;28708;52.224;6.924;2023-01-26T03:02:47;133.70;;;43.13;;
43086;SDS011;28708;52.224;6.924;2023-01-26T03:05:15;141.57;;;44.00;;
43086;SDS011;28708;52.224;6.924;2023-01-26T03:07:41;135.30;;;42.97;;
43086;SDS011;28708;52.224;6.924;2023-01-26T03:10:07;141.10;;;42.40;;
43086;SDS011;28708;52.224;6.924;2023-01-26T03:12:33;128.07;;;40.23;;
43086;SDS011;28708;52.224;6.924;2023-01-26T03:14:59;123.13;;;39.67;;
43086;SDS011;28708;52.224;6.924;2023-01-26T03:17:44;124.40;;;39.87;;
43086;SDS011;28708;52.224;6.924;2023-01-26T03:20:09;115.20;;;37.60;;
43086;SDS011;28708;52.224;6.924;2023-01-26T03:22:54;113.70;;;36.83;;
43086;SDS011;28708;52.224;6.924;2023-01-26T03:25:39;118.60;;;37.83;;
43086;SDS011;28708;52.224;6.924;2023-01-26T03:28:26;117.60;;;37.90;;
43086;SDS011;28708;52.224;6.924;2023-01-26T03:30:52;115.60;;;38.33;;
43086;SDS011;28708;52.224;6.924;2023-01-26T03:33:20;123.17;;;38.27;;
43086;SDS011;28708;52.224;6.924;2023-01-26T03:35:46;115.23;;;37.47;;
43086;SDS011;28708;52.224;6.924;2023-01-26T03:38:12;118.83;;;36.33;;
43086;SDS011;28708;52.224;6.924;2023-01-26T03:40:44;108.97;;;35.63;;
43086;SDS011;28708;52.224;6.924;2023-01-26T03:43:28;113.90;;;37.70;;
43086;SDS011;28708;52.224;6.924;2023-01-26T03:46:12;116.33;;;35.57;;
43086;SDS011;28708;52.224;6.924;2023-01-26T03:48:56;113.47;;;36.13;;
43086;SDS011;28708;52.224;6.924;2023-01-26T03:51:41;113.77;;;35.20;;
43086;SDS011;28708;52.224;6.924;2023-01-26T03:54:25;101.73;;;35.63;;
43086;SDS011;28708;52.224;6.924;2023-01-26T03:57:10;96.20;;;32.33;;
43086;SDS011;28708;52.224;6.924;2023-01-26T03:59:36;95.77;;;32.80;;
43086;SDS011;28708;52.224;6.924;2023-01-26T04:02:06;96.37;;;34.13;;
43086;SDS011;28708;52.224;6.924;2023-01-26T04:04:52;100.15;;;32.45;;
43086;SDS011;28708;52.224;6.924;2023-01-26T04:07:40;95.10;;;32.53;;
43086;SDS011;28708;52.224;6.924;2023-01-26T04:10:25;104.20;;;34.80;;
43086;SDS011;28708;52.224;6.924;2023-01-26T04:12:51;99.83;;;34.90;;
43086;SDS011;28708;52.224;6.924;2023-01-26T04:15:37;88.57;;;30.73;;
43086;SDS011;28708;52.224;6.924;2023-01-26T04:18:21;85.83;;;29.33;;
43086;SDS011;28708;52.224;6.924;2023-01-26T04:21:05;81.43;;;29.63;;
43086;SDS011;28708;52.224;6.924;2023-01-26T04:23:53;77.93;;;26.70;;
43086;SDS011;28708;52.224;6.924;2023-01-26T04:26:29;85.20;;;27.87;;
43086;SDS011;28708;52.224;6.924;2023-01-26T04:29:06;79.00;;;27.67;;
43086;SDS011;28708;52.224;6.924;2023-01-26T04:31:34;78.57;;;27.93;;
43086;SDS011;28708;52.224;6.924;2023-01-26T04:34:01;78.27;;;29.13;;
43086;SDS011;28708;52.224;6.924;2023-01-26T04:36:27;76.40;;;27.10;;
43086;SDS011;28708;52.224;6.924;2023-01-26T04:38:54;76.33;;;26.63;;
43086;SDS011;28708;52.224;6.924;2023-01-26T04:41:21;70.70;;;26.50;;
43086;SDS011;28708;52.224;6.924;2023-01-26T04:43:53;70.97;;;24.40;;
43086;SDS011;28708;52.224;6.924;2023-01-26T04:46:18;72.43;;;25.57;;
43086;SDS011;28708;52.224;6.924;2023-01-26T04:48:44;68.23;;;25.27;;
43086;SDS011;28708;52.224;6.924;2023-01-26T04:51:11;64.60;;;25.17;;
43086;SDS011;28708;52.224;6.924;2023-01-26T04:53:38;75.60;;;26.23;;
43086;SDS011;28708;52.224;6.924;2023-01-26T04:56:05;70.27;;;25.80;;
43086;SDS011;28708;52.224;6.924;2023-01-26T04:58:33;60.93;;;23.63;;
43086;SDS011;28708;52.224;6.924;2023-01-26T05:00:59;69.67;;;25.27;;
43086;SDS011;28708;52.224;6.924;2023-01-26T05:03:25;63.60;;;22.93;;
43086;SDS011;28708;52.224;6.924;2023-01-26T05:05:52;63.13;;;22.70;;
43086;SDS011;28708;52.224;6.924;2023-01-26T05:08:20;62.27;;;23.90;;
43086;SDS011;28708;52.224;6.924;2023-01-26T05:10:47;67.47;;;23.93;;
43086;SDS011;28708;52.224;6.924;2023-01-26T05:13:32;60.77;;;22.13;;
43086;SDS011;28708;52.224;6.924;2023-01-26T05:16:18;62.53;;;22.53;;
43086;SDS011;28708;52.224;6.924;2023-01-26T05:19:02;59.43;;;22.77;;
43086;SDS011;28708;52.224;6.924;2023-01-26T05:21:41;57.87;;;21.13;;
43086;SDS011;28708;52.224;6.924;2023-01-26T05:24:07;56.23;;;21.07;;
43086;SDS011;28708;52.224;6.924;2023-01-26T05:26:54;64.40;;;22.87;;
43086;SDS011;28708;52.224;6.924;2023-01-26T05:29:40;57.63;;;22.37;;
43086;SDS011;28708;52.224;6.924;2023-01-26T05:32:06;57.37;;;21.57;;
43086;SDS011;28708;52.224;6.924;2023-01-26T05:34:32;60.43;;;23.17;;
43086;SDS011;28708;52.224;6.924;2023-01-26T05:36:57;56.60;;;21.63;;
43086;SDS011;28708;52.224;6.924;2023-01-26T05:39:23;59.97;;;22.17;;
43086;SDS011;28708;52.224;6.924;2023-01-26T05:41:49;61.90;;;22.37;;
43086;SDS011;28708;52.224;6.924;2023-01-26T05:44:33;55.70;;;21.53;;
43086;SDS011;28708;52.224;6.924;2023-01-26T05:47:12;59.30;;;21.90;;
43086;SDS011;28708;52.224;6.924;2023-01-26T05:49:40;65.00;;;23.77;;
43086;SDS011;28708;52.224;6.924;2023-01-26T05:52:15;63.40;;;22.87;;
43086;SDS011;28708;52.224;6.924;2023-01-26T05:54:43;63.03;;;22.97;;
43086;SDS011;28708;52.224;6.924;2023-01-26T05:57:09;55.37;;;21.00;;
43086;SDS011;28708;52.224;6.924;2023-01-26T05:59:40;57.17;;;20.73;;
43086;SDS011;28708;52.224;6.924;2023-01-26T06:02:06;54.80;;;20.43;;
43086;SDS011;28708;52.224;6.924;2023-01-26T06:04:34;59.13;;;21.23;;
43086;SDS011;28708;52.224;6.924;2023-01-26T06:07:01;52.33;;;19.77;;
43086;SDS011;28708;52.224;6.924;2023-01-26T06:09:36;54.87;;;20.43;;
43086;SDS011;28708;52.224;6.924;2023-01-26T06:12:20;51.30;;;19.77;;
43086;SDS011;28708;52.224;6.924;2023-01-26T06:15:09;50.90;;;20.53;;
43086;SDS011;28708;52.224;6.924;2023-01-26T06:17:40;51.13;;;19.53;;
43086;SDS011;28708;52.224;6.924;2023-01-26T06:20:08;54.87;;;20.57;;
43086;SDS011;28708;52.224;6.924;2023-01-26T06:22:35;54.87;;;20.00;;
43086;SDS011;28708;52.224;6.924;2023-01-26T06:25:00;53.67;;;20.53;;
43086;SDS011;28708;52.224;6.924;2023-01-26T06:27:26;46.50;;;18.73;;
43086;SDS011;28708;52.224;6.924;2023-01-26T06:29:53;45.57;;;18.07;;
43086;SDS011;28708;52.224;6.924;2023-01-26T06:32:18;45.17;;;17.53;;
43086;SDS011;28708;52.224;6.924;2023-01-26T06:37:17;39.13;;;15.67;;
43086;SDS011;28708;52.224;6.924;2023-01-26T06:39:43;43.37;;;17.50;;
43086;SDS011;28708;52.224;6.924;2023-01-26T06:42:10;46.33;;;16.07;;
43086;SDS011;28708;52.224;6.924;2023-01-26T06:44:37;41.47;;;16.13;;
43086;SDS011;28708;52.224;6.924;2023-01-26T06:47:03;36.83;;;15.27;;
43086;SDS011;28708;52.224;6.924;2023-01-26T06:49:30;36.07;;;15.47;;
43086;SDS011;28708;52.224;6.924;2023-01-26T06:54:47;37.70;;;15.53;;
43086;SDS011;28708;52.224;6.924;2023-01-26T06:57:31;42.90;;;18.10;;
43086;SDS011;28708;52.224;6.924;2023-01-26T07:00:08;41.50;;;16.27;;
43086;SDS011;28708;52.224;6.924;2023-01-26T07:02:52;41.87;;;16.77;;
43086;SDS011;28708;52.224;6.924;2023-01-26T07:05:18;39.67;;;16.13;;
43086;SDS011;28708;52.224;6.924;2023-01-26T07:07:44;43.97;;;17.57;;
43086;SDS011;28708;52.224;6.924;2023-01-26T07:10:10;46.37;;;18.47;;
43086;SDS011;28708;52.224;6.924;2023-01-26T07:12:40;42.83;;;16.63;;
43086;SDS011;28708;52.224;6.924;2023-01-26T07:15:08;40.10;;;16.53;;
43086;SDS011;28708;52.224;6.924;2023-01-26T07:17:35;38.73;;;16.73;;
43086;SDS011;28708;52.224;6.924;2023-01-26T07:20:01;43.27;;;16.13;;
43086;SDS011;28708;52.224;6.924;2023-01-26T07:22:27;44.20;;;15.80;;
43086;SDS011;28708;52.224;6.924;2023-01-26T07:24:53;44.40;;;17.17;;
43086;SDS011;28708;52.224;6.924;2023-01-26T07:27:18;39.10;;;16.03;;
43086;SDS011;28708;52.224;6.924;2023-01-26T07:29:44;39.50;;;15.13;;
43086;SDS011;28708;52.224;6.924;2023-01-26T07:32:10;44.83;;;16.57;;
43086;SDS011;28708;52.224;6.924;2023-01-26T07:34:36;40.23;;;15.80;;
43086;SDS011;28708;52.224;6.924;2023-01-26T07:37:02;44.57;;;15.80;;
43086;SDS011;28708;52.224;6.924;2023-01-26T07:39:29;35.43;;;15.00;;
43086;SDS011;28708;52.224;6.924;2023-01-26T07:41:55;41.47;;;16.53;;
43086;SDS011;28708;52.224;6.924;2023-01-26T07:44:38;43.27;;;16.87;;
43086;SDS011;28708;52.224;6.924;2023-01-26T07:47:03;38.60;;;16.17;;
43086;SDS011;28708;52.224;6.924;2023-01-26T07:49:29;32.57;;;14.40;;
43086;SDS011;28708;52.224;6.924;2023-01-26T07:51:56;38.27;;;16.50;;
43086;SDS011;28708;52.224;6.924;2023-01-26T07:54:21;39.40;;;15.70;;
43086;SDS011;28708;52.224;6.924;2023-01-26T07:56:51;36.93;;;16.17;;
43086;SDS011;28708;52.224;6.924;2023-01-26T07:59:19;39.03;;;16.20;;
43086;SDS011;28708;52.224;6.924;2023-01-26T08:01:45;33.13;;;14.87;;
43086;SDS011;28708;52.224;6.924;2023-01-26T08:04:12;41.00;;;16.07;;
43086;SDS011;28708;52.224;6.924;2023-01-26T08:06:38;42.60;;;16.30;;
43086;SDS011;28708;52.224;6.924;2023-01-26T08:09:04;45.23;;;17.23;;
43086;SDS011;28708;52.224;6.924;2023-01-26T08:11:29;36.83;;;16.30;;
43086;SDS011;28708;52.224;6.924;2023-01-26T08:13:55;40.70;;;16.87;;
43086;SDS011;28708;52.224;6.924;2023-01-26T08:16:20;36.93;;;15.77;;
43086;SDS011;28708;52.224;6.924;2023-01-26T08:18:47;41.40;;;16.57;;
43086;SDS011;28708;52.224;6.924;2023-01-26T08:21:14;37.10;;;15.10;;
43086;SDS011;28708;52.224;6.924;2023-01-26T08:23:41;39.97;;;14.33;;
43086;SDS011;28708;52.224;6.924;2023-01-26T08:26:07;39.40;;;15.70;;
43086;SDS011;28708;52.224;6.924;2023-01-26T08:28:37;40.30;;;14.90;;
43086;SDS011;28708;52.224;6.924;2023-01-26T08:31:14;35.60;;;14.57;;
43086;SDS011;28708;52.224;6.924;2023-01-26T08:33:44;35.08;;;15.15;;
43086;SDS011;28708;52.224;6.924;2023-01-26T08:36:15;35.83;;;13.67;;
43086;SDS011;28708;52.224;6.924;2023-01-26T08:38:41;32.70;;;13.60;;
43086;SDS011;28708;52.224;6.924;2023-01-26T08:41:07;36.67;;;15.90;;
43086;SDS011;28708;52.224;6.924;2023-01-26T08:43:33;36.77;;;15.10;;
43086;SDS011;28708;52.224;6.924;2023-01-26T08:45:59;39.87;;;15.53;;
43086;SDS011;28708;52.224;6.924;2023-01-26T08:48:24;39.03;;;15.60;;
43086;SDS011;28708;52.224;6.924;2023-01-26T08:50:54;39.43;;;15.73;;
43086;SDS011;28708;52.224;6.924;2023-01-26T08:53:24;41.53;;;15.90;;
43086;SDS011;28708;52.224;6.924;2023-01-26T08:55:50;44.17;;;16.57;;
43086;SDS011;28708;52.224;6.924;2023-01-26T08:58:16;39.77;;;15.00;;
43086;SDS011;28708;52.224;6.924;2023-01-26T09:00:42;43.50;;;16.20;;
43086;SDS011;28708;52.224;6.924;2023-01-26T09:03:08;39.97;;;15.97;;
43086;SDS011;28708;52.224;6.924;2023-01-26T09:05:35;50.37;;;17.23;;
43086;SDS011;28708;52.224;6.924;2023-01-26T09:08:03;40.47;;;16.73;;
43086;SDS011;28708;52.224;6.924;2023-01-26T09:10:30;48.27;;;17.70;;
43086;SDS011;28708;52.224;6.924;2023-01-26T09:12:57;51.07;;;17.40;;
43086;SDS011;28708;52.224;6.924;2023-01-26T09:15:23;48.87;;;17.47;;
43086;SDS011;28708;52.224;6.924;2023-01-26T09:17:49;46.57;;;17.23;;
43086;SDS011;28708;52.224;6.924;2023-01-26T09:20:15;48.73;;;16.83;;
43086;SDS011;28708;52.224;6.924;2023-01-26T09:22:41;41.03;;;16.93;;
43086;SDS011;28708;52.224;6.924;2023-01-26T09:25:08;53.53;;;16.70;;
43086;SDS011;28708;52.224;6.924;2023-01-26T09:27:34;48.83;;;17.00;;
43086;SDS011;28708;52.224;6.924;2023-01-26T09:30:00;46.67;;;15.07;;
43086;SDS011;28708;52.224;6.924;2023-01-26T09:32:27;42.37;;;15.63;;
43086;SDS011;28708;52.224;6.924;2023-01-26T09:34:54;45.13;;;16.07;;
43086;SDS011;28708;52.224;6.924;2023-01-26T09:37:20;50.80;;;17.47;;
43086;SDS011;28708;52.224;6.924;2023-01-26T09:39:46;53.60;;;16.73;;
43086;SDS011;28708;52.224;6.924;2023-01-26T09:42:27;55.60;;;17.13;;
43086;SDS011;28708;52.224;6.924;2023-01-26T09:45:11;46.55;;;16.48;;
43086;SDS011;28708;52.224;6.924;2023-01-26T09:50:40;56.67;;;18.27;;
43086;SDS011;28708;52.224;6.924;2023-01-26T09:56:19;54.33;;;19.03;;
43086;SDS011;28708;52.224;6.924;2023-01-26T10:01:49;53.33;;;18.33;;
43086;SDS011;28708;52.224;6.924;2023-01-26T10:07:01;61.47;;;18.98;;
43086;SDS011;28708;52.224;6.924;2023-01-26T10:09:45;52.67;;;17.80;;
43086;SDS011;28708;52.224;6.924;2023-01-26T10:12:15;61.90;;;18.40;;
43086;SDS011;28708;52.224;6.924;2023-01-26T10:17:23;61.93;;;20.23;;
43086;SDS011;28708;52.224;6.924;2023-01-26T10:20:05;54.33;;;19.30;;
43086;SDS011;28708;52.224;6.924;2023-01-26T10:22:51;68.47;;;20.03;;
43086;SDS011;28708;52.224;6.924;2023-01-26T10:25:25;53.73;;;18.57;;
43086;SDS011;28708;52.224;6.924;2023-01-26T10:28:33;55.95;;;18.73;;
43086;SDS011;28708;52.224;6.924;2023-01-26T10:30:53;55.53;;;20.07;;
43086;SDS011;28708;52.224;6.924;2023-01-26T10:33:29;61.80;;;20.27;;
43086;SDS011;28708;52.224;6.924;2023-01-26T10:35:57;63.40;;;19.77;;
43086;SDS011;28708;52.224;6.924;2023-01-26T10:41:02;65.97;;;20.40;;
43086;SDS011;28708;52.224;6.924;2023-01-26T10:43:31;64.50;;;20.80;;
43086;SDS011;28708;52.224;6.924;2023-01-26T10:46:02;56.77;;;20.20;;
43086;SDS011;28708;52.224;6.924;2023-01-26T10:48:28;77.70;;;22.23;;
43086;SDS011;28708;52.224;6.924;2023-01-26T10:50:53;75.70;;;21.90;;
43086;SDS011;28708;52.224;6.924;2023-01-26T10:53:37;90.90;;;26.70;;
43086;SDS011;28708;52.224;6.924;2023-01-26T10:56:03;66.33;;;20.90;;
43086;SDS011;28708;52.224;6.924;2023-01-26T10:58:39;76.63;;;23.33;;
43086;SDS011;28708;52.224;6.924;2023-01-26T11:01:09;76.37;;;23.13;;
43086;SDS011;28708;52.224;6.924;2023-01-26T11:03:39;85.73;;;26.80;;
43086;SDS011;28708;52.224;6.924;2023-01-26T11:06:06;87.45;;;24.90;;
43086;SDS011;28708;52.224;6.924;2023-01-26T11:08:40;88.90;;;25.27;;
43086;SDS011;28708;52.224;6.924;2023-01-26T11:11:06;83.37;;;25.13;;
43086;SDS011;28708;52.224;6.924;2023-01-26T11:14:09;91.03;;;24.93;;
43086;SDS011;28708;52.224;6.924;2023-01-26T11:16:37;94.90;;;25.73;;
43086;SDS011;28708;52.224;6.924;2023-01-26T11:19:11;112.80;;;28.57;;
43086;SDS011;28708;52.224;6.924;2023-01-26T11:21:48;99.80;;;23.90;;
43086;SDS011;28708;52.224;6.924;2023-01-26T11:29:33;109.37;;;26.97;;
43086;SDS011;28708;52.224;6.924;2023-01-26T11:46:00;118.63;;;25.03;;
43086;SDS011;28708;52.224;6.924;2023-01-26T11:48:54;127.40;;;31.33;;
43086;SDS011;28708;52.224;6.924;2023-01-26T11:57:13;115.03;;;25.60;;
43086;SDS011;28708;52.224;6.924;2023-01-26T11:59:55;109.43;;;25.27;;
43086;SDS011;28708;52.224;6.924;2023-01-26T12:02:44;107.93;;;25.83;;
43086;SDS011;28708;52.224;6.924;2023-01-26T12:05:21;121.47;;;27.40;;
43086;SDS011;28708;52.224;6.924;2023-01-26T12:08:01;99.07;;;26.83;;
43086;SDS011;28708;52.224;6.924;2023-01-26T12:10:47;113.13;;;30.03;;
43086;SDS011;28708;52.224;6.924;2023-01-26T12:13:46;97.23;;;25.80;;
43086;SDS011;28708;52.224;6.924;2023-01-26T12:21:45;81.83;;;22.07;;
43086;SDS011;28708;52.224;6.924;2023-01-26T12:24:16;66.80;;;20.53;;
43086;SDS011;28708;52.224;6.924;2023-01-26T12:26:49;76.03;;;21.73;;
43086;SDS011;28708;52.224;6.924;2023-01-26T12:32:07;76.60;;;18.47;;
43086;SDS011;28708;52.224;6.924;2023-01-26T12:34:36;70.63;;;20.10;;
43086;SDS011;28708;52.224;6.924;2023-01-26T12:40:13;57.57;;;17.53;;
43086;SDS011;28708;52.224;6.924;2023-01-26T12:45:44;52.37;;;15.90;;
43086;SDS011;28708;52.224;6.924;2023-01-26T12:48:19;54.50;;;14.77;;
43086;SDS011;28708;52.224;6.924;2023-01-26T12:50:55;60.50;;;17.57;;
43086;SDS011;28708;52.224;6.924;2023-01-26T12:53:34;57.43;;;15.67;;
43086;SDS011;28708;52.224;6.924;2023-01-26T12:56:21;56.10;;;13.30;;
43086;SDS011;28708;52.224;6.924;2023-01-26T12:58:52;48.87;;;15.77;;
43086;SDS011;28708;52.224;6.924;2023-01-26T13:01:20;50.37;;;15.17;;
43086;SDS011;28708;52.224;6.924;2023-01-26T13:03:55;47.77;;;14.37;;
43086;SDS011;28708;52.224;6.924;2023-01-26T13:06:24;49.27;;;13.50;;
43086;SDS011;28708;52.224;6.924;2023-01-26T13:11:47;48.70;;;14.33;;
43086;SDS011;28708;52.224;6.924;2023-01-26T13:16:48;40.93;;;12.30;;
43086;SDS011;28708;52.224;6.924;2023-01-26T13:30:26;63.93;;;22.90;;
43086;SDS011;28708;52.224;6.924;2023-01-26T13:32:50;55.87;;;16.40;;
43086;SDS011;28708;52.224;6.924;2023-01-26T13:35:18;61.57;;;16.33;;
43086;SDS011;28708;52.224;6.924;2023-01-26T13:40:33;60.63;;;12.60;;
43086;SDS011;28708;52.224;6.924;2023-01-26T13:48:35;55.47;;;12.90;;
43086;SDS011;28708;52.224;6.924;2023-01-26T13:51:06;46.07;;;12.80;;
43086;SDS011;28708;52.224;6.924;2023-01-26T13:53:37;44.73;;;9.70;;
43086;SDS011;28708;52.224;6.924;2023-01-26T13:56:06;32.58;;;7.93;;
43086;SDS011;28708;52.224;6.924;2023-01-26T13:58:44;36.35;;;7.65;;
43086;SDS011;28708;52.224;6.924;2023-01-26T14:01:11;38.50;;;9.27;;
43086;SDS011;28708;52.224;6.924;2023-01-26T14:03:37;42.07;;;12.27;;
43086;SDS011;28708;52.224;6.924;2023-01-26T14:06:04;42.47;;;10.60;;
43086;SDS011;28708;52.224;6.924;2023-01-26T14:08:34;30.07;;;8.37;;
43086;SDS011;28708;52.224;6.924;2023-01-26T14:11:02;35.63;;;9.07;;
43086;SDS011;28708;52.224;6.924;2023-01-26T14:13:36;30.43;;;7.60;;
43086;SDS011;28708;52.224;6.924;2023-01-26T14:16:03;42.03;;;6.67;;
43086;SDS011;28708;52.224;6.924;2023-01-26T14:18:30;29.77;;;7.07;;
43086;SDS011;28708;52.224;6.924;2023-01-26T14:21:05;27.90;;;6.10;;
43086;SDS011;28708;52.224;6.924;2023-01-26T14:23:41;40.37;;;8.73;;
43086;SDS011;28708;52.224;6.924;2023-01-26T14:26:18;36.07;;;5.77;;
43086;SDS011;28708;52.224;6.924;2023-01-26T14:28:55;30.13;;;6.27;;
43086;SDS011;28708;52.224;6.924;2023-01-26T14:31:23;28.10;;;4.10;;
43086;SDS011;28708;52.224;6.924;2023-01-26T14:33:51;28.27;;;4.60;;
43086;SDS011;28708;52.224;6.924;2023-01-26T14:36:21;29.53;;;5.40;;
43086;SDS011;28708;52.224;6.924;2023-01-26T14:38:49;33.77;;;6.80;;
43086;SDS011;28708;52.224;6.924;2023-01-26T14:41:17;34.03;;;6.17;;
43086;SDS011;28708;52.224;6.924;2023-01-26T14:43:54;30.43;;;5.90;;
43086;SDS011;28708;52.224;6.924;2023-01-26T14:46:34;29.47;;;6.63;;
43086;SDS011;28708;52.224;6.924;2023-01-26T14:49:15;25.27;;;4.70;;
43086;SDS011;28708;52.224;6.924;2023-01-26T14:51:55;22.43;;;4.33;;
43086;SDS011;28708;52.224;6.924;2023-01-26T14:54:30;30.40;;;4.20;;
43086;SDS011;28708;52.224;6.924;2023-01-26T14:56:57;28.53;;;5.63;;
43086;SDS011;28708;52.224;6.924;2023-01-26T14:59:27;24.63;;;4.10;;
43086;SDS011;28708;52.224;6.924;2023-01-26T15:02:17;26.97;;;3.90;;
43086;SDS011;28708;52.224;6.924;2023-01-26T15:04:45;27.83;;;4.47;;
43086;SDS011;28708;52.224;6.924;2023-01-26T15:09:55;28.47;;;4.50;;
43086;SDS011;28708;52.224;6.924;2023-01-26T15:12:21;33.93;;;5.33;;
43086;SDS011;28708;52.224;6.924;2023-01-26T15:14:48;27.80;;;4.70;;
43086;SDS011;28708;52.224;6.924;2023-01-26T15:17:29;20.07;;;4.00;;
43086;SDS011;28708;52.224;6.924;2023-01-26T15:22:40;21.13;;;3.27;;
43086;SDS011;28708;52.224;6.924;2023-01-26T15:25:16;29.20;;;4.90;;
43086;SDS011;28708;52.224;6.924;2023-01-26T15:27:51;25.50;;;4.20;;
43086;SDS011;28708;52.224;6.924;2023-01-26T15:30:22;20.33;;;3.57;;
43086;SDS011;28708;52.224;6.924;2023-01-26T15:35:26;28.87;;;5.53;;
43086;SDS011;28708;52.224;6.924;2023-01-26T15:38:07;22.47;;;4.23;;
43086;SDS011;28708;52.224;6.924;2023-01-26T15:40:35;25.97;;;4.00;;
43086;SDS011;28708;52.224;6.924;2023-01-26T15:43:19;23.13;;;3.77;;
43086;SDS011;28708;52.224;6.924;2023-01-26T15:50:41;38.50;;;10.13;;
43086;SDS011;28708;52.224;6.924;2023-01-26T15:53:11;35.30;;;6.40;;
43086;SDS011;28708;52.224;6.924;2023-01-26T15:55:47;40.53;;;9.17;;
43086;SDS011;28708;52.224;6.924;2023-01-26T16:00:43;36.87;;;9.67;;
43086;SDS011;28708;52.224;6.924;2023-01-26T16:03:16;49.40;;;11.90;;
43086;SDS011;28708;52.224;6.924;2023-01-26T16:05:43;28.13;;;6.63;;
43086;SDS011;28708;52.224;6.924;2023-01-26T16:08:12;24.17;;;6.57;;
43086;SDS011;28708;52.224;6.924;2023-01-26T16:10:38;37.33;;;8.50;;
43086;SDS011;28708;52.224;6.924;2023-01-26T16:13:08;23.97;;;5.23;;
43086;SDS011;28708;52.224;6.924;2023-01-26T16:18:08;28.37;;;7.00;;
43086;SDS011;28708;52.224;6.924;2023-01-26T16:20:38;26.47;;;4.60;;
43086;SDS011;28708;52.224;6.924;2023-01-26T16:23:11;21.47;;;4.97;;
43086;SDS011;28708;52.224;6.924;2023-01-26T16:25:44;29.07;;;4.40;;
43086;SDS011;28708;52.224;6.924;2023-01-26T16:28:10;14.90;;;5.07;;
43086;SDS011;28708;52.224;6.924;2023-01-26T16:30:36;25.30;;;3.53;;
43086;SDS011;28708;52.224;6.924;2023-01-26T16:33:02;21.83;;;3.90;;
43086;SDS011;28708;52.224;6.924;2023-01-26T16:35:28;20.70;;;4.87;;
43086;SDS011;28708;52.224;6.924;2023-01-26T16:37:54;17.07;;;3.57;;